createdAt,value
2023-02-27T00:01:35.112Z,3.70
2023-02-27T00:04:02.313Z,3.73
2023-02-27T00:06:29.283Z,2.80
2023-02-27T00:08:55.939Z,3.07
2023-02-27T00:11:22.554Z,3.53
2023-02-27T00:13:49.462Z,2.73
2023-02-27T00:16:16.082Z,3.03
2023-02-27T00:18:42.735Z,3.27
2023-02-27T00:21:09.547Z,4.40
2023-02-27T00:23:36.277Z,2.70
2023-02-27T00:26:02.939Z,2.57
2023-02-27T00:28:29.697Z,4.20
2023-02-27T00:30:56.421Z,4.60
2023-02-27T00:33:23.060Z,3.20
2023-02-27T00:35:56.386Z,4.87
2023-02-27T00:38:23.068Z,4.73
2023-02-27T00:40:49.623Z,18.37
2023-02-27T00:43:16.233Z,8.47
2023-02-27T00:45:42.917Z,4.57
2023-02-27T00:48:09.652Z,7.73
2023-02-27T00:50:36.388Z,5.80
2023-02-27T00:53:03.164Z,4.97
2023-02-27T00:55:30.400Z,4.33
2023-02-27T00:57:57.712Z,4.70
2023-02-27T01:00:24.622Z,5.10
2023-02-27T01:02:51.222Z,4.83
2023-02-27T01:05:18.163Z,3.13
2023-02-27T01:07:45.420Z,6.27
2023-02-27T01:10:12.922Z,4.97
2023-02-27T01:12:39.817Z,6.27
2023-02-27T01:15:07.203Z,4.13
2023-02-27T01:17:34.129Z,4.87
2023-02-27T01:20:00.821Z,6.90
2023-02-27T01:22:27.520Z,3.57
2023-02-27T01:24:54.212Z,6.33
2023-02-27T01:27:20.830Z,6.17
2023-02-27T01:29:47.458Z,5.23
2023-02-27T01:32:14.107Z,4.63
2023-02-27T01:34:40.725Z,4.57
2023-02-27T01:37:07.478Z,5.60
2023-02-27T01:39:34.838Z,3.73
2023-02-27T01:42:01.440Z,4.10
2023-02-27T01:44:30.362Z,2.40
2023-02-27T01:46:57.205Z,3.70
2023-02-27T01:49:26.130Z,5.33
2023-02-27T01:52:01.971Z,2.87
2023-02-27T01:54:30.982Z,6.00
2023-02-27T01:56:57.730Z,6.03
2023-02-27T01:59:24.367Z,2.37
2023-02-27T02:01:51.312Z,4.73
2023-02-27T02:04:28.177Z,7.03
2023-02-27T02:07:06.144Z,3.77
2023-02-27T02:09:34.567Z,3.07
2023-02-27T02:12:01.245Z,4.50
2023-02-27T02:14:27.833Z,4.57
2023-02-27T02:17:03.469Z,6.30
2023-02-27T02:19:44.539Z,3.67
2023-02-27T02:22:49.411Z,2.90
2023-02-27T02:25:19.488Z,5.00
2023-02-27T02:27:46.170Z,4.37
2023-02-27T02:30:30.692Z,6.10
2023-02-27T02:33:16.437Z,6.67
2023-02-27T02:36:01.788Z,6.00
2023-02-27T02:38:47.392Z,4.60
2023-02-27T02:41:17.020Z,5.50
2023-02-27T02:43:52.707Z,4.03
2023-02-27T02:46:38.609Z,5.20
2023-02-27T02:49:16.744Z,7.40
2023-02-27T02:51:51.559Z,5.60
2023-02-27T02:54:24.676Z,7.63
2023-02-27T02:57:04.961Z,4.87
2023-02-27T02:59:39.067Z,7.27
2023-02-27T03:02:29.044Z,6.77
2023-02-27T03:04:58.429Z,7.17
2023-02-27T03:07:25.078Z,5.33
2023-02-27T03:09:56.838Z,6.97
2023-02-27T03:12:24.921Z,7.07
2023-02-27T03:14:51.544Z,6.03
2023-02-27T03:17:22.720Z,4.77
2023-02-27T03:20:02.576Z,5.90
2023-02-27T03:22:32.548Z,6.80
2023-02-27T03:25:00.738Z,4.87
2023-02-27T03:27:34.137Z,8.30
2023-02-27T03:30:00.728Z,10.40
2023-02-27T03:32:38.681Z,5.40
2023-02-27T03:35:07.213Z,7.27
2023-02-27T03:37:34.870Z,5.77
2023-02-27T03:40:14.971Z,5.77
2023-02-27T03:43:07.209Z,6.97
2023-02-27T03:46:02.930Z,6.07
2023-02-27T03:48:29.672Z,5.93
2023-02-27T03:50:56.660Z,7.23
2023-02-27T03:53:29.170Z,5.07
2023-02-27T03:55:56.481Z,7.63
2023-02-27T03:58:23.302Z,8.20
2023-02-27T04:00:50.499Z,7.30
2023-02-27T04:03:17.669Z,5.97
2023-02-27T04:05:44.608Z,6.07
2023-02-27T04:08:30.839Z,5.50
2023-02-27T04:10:57.474Z,10.40
2023-02-27T04:13:24.067Z,6.67
2023-02-27T04:16:09.866Z,7.27
2023-02-27T04:18:59.172Z,8.83
2023-02-27T04:21:29.554Z,8.70
2023-02-27T04:24:12.795Z,8.00
2023-02-27T04:26:42.876Z,7.40
2023-02-27T04:29:18.686Z,9.97
2023-02-27T04:31:49.451Z,7.70
2023-02-27T04:34:25.536Z,6.97
2023-02-27T04:36:55.321Z,7.67
2023-02-27T04:39:25.181Z,10.30
2023-02-27T04:41:54.806Z,8.40
2023-02-27T04:44:22.846Z,10.47
2023-02-27T04:46:49.958Z,9.13
2023-02-27T04:49:19.918Z,11.47
2023-02-27T04:51:53.969Z,8.07
2023-02-27T04:54:39.538Z,15.20
2023-02-27T04:57:08.064Z,9.43
2023-02-27T04:59:37.681Z,8.30
2023-02-27T05:02:04.333Z,9.13
2023-02-27T05:04:32.902Z,8.57
2023-02-27T05:07:00.967Z,10.10
2023-02-27T05:09:40.822Z,8.57
2023-02-27T05:12:13.164Z,12.57
2023-02-27T05:14:48.599Z,11.77
2023-02-27T05:17:17.848Z,12.00
2023-02-27T05:19:46.027Z,10.77
2023-02-27T05:22:31.635Z,9.00
2023-02-27T05:25:23.737Z,12.00
2023-02-27T05:28:02.666Z,10.57
2023-02-27T05:30:34.137Z,10.60
2023-02-27T05:33:07.431Z,11.70
2023-02-27T05:35:36.982Z,9.13
2023-02-27T05:38:09.347Z,11.00
2023-02-27T05:40:37.941Z,10.40
2023-02-27T05:43:12.983Z,10.53
2023-02-27T05:45:41.210Z,13.77
2023-02-27T05:48:10.608Z,9.37
2023-02-27T05:50:38.299Z,13.33
2023-02-27T05:53:07.865Z,11.90
2023-02-27T05:55:46.338Z,10.23
2023-02-27T05:58:16.720Z,10.77
2023-02-27T06:00:46.008Z,10.40
2023-02-27T06:03:13.238Z,13.20
2023-02-27T06:05:41.264Z,12.17
2023-02-27T06:08:08.001Z,11.80
2023-02-27T06:10:34.825Z,11.73
2023-02-27T06:13:01.550Z,14.47
2023-02-27T06:15:28.567Z,15.60
2023-02-27T06:17:56.443Z,13.97
2023-02-27T06:20:23.459Z,16.00
2023-02-27T06:22:50.144Z,12.57
2023-02-27T06:25:17.320Z,13.23
2023-02-27T06:27:44.024Z,18.03
2023-02-27T06:30:11.090Z,13.57
2023-02-27T06:32:37.811Z,14.40
2023-02-27T06:35:04.638Z,13.10
2023-02-27T06:37:31.319Z,15.93
2023-02-27T06:39:58.176Z,14.33
2023-02-27T06:42:25.277Z,16.70
2023-02-27T06:44:52.479Z,16.33
2023-02-27T06:47:19.184Z,17.93
2023-02-27T06:49:46.216Z,17.07
2023-02-27T06:52:12.931Z,14.00
2023-02-27T06:54:39.641Z,13.27
2023-02-27T06:57:06.382Z,14.37
2023-02-27T06:59:33.135Z,16.00
2023-02-27T07:02:01.086Z,13.00
2023-02-27T07:04:27.868Z,16.10
2023-02-27T07:07:32.972Z,14.77
2023-02-27T07:09:41.562Z,15.13
2023-02-27T07:12:08.299Z,15.57
2023-02-27T07:14:35.285Z,15.83
2023-02-27T07:17:04.591Z,16.13
2023-02-27T07:19:32.396Z,15.83
2023-02-27T07:21:59.753Z,18.47
2023-02-27T07:24:26.428Z,15.63
2023-02-27T07:26:53.882Z,17.53
2023-02-27T07:29:20.974Z,13.80
2023-02-27T07:31:47.766Z,13.70
2023-02-27T07:34:15.727Z,15.63
2023-02-27T07:36:43.473Z,13.73
2023-02-27T07:39:11.499Z,13.63
2023-02-27T07:41:38.120Z,19.83
2023-02-27T07:44:07.047Z,13.67
2023-02-27T07:46:33.836Z,13.13
2023-02-27T07:49:00.552Z,11.57
2023-02-27T07:51:27.254Z,12.63
2023-02-27T07:53:56.095Z,11.80
2023-02-27T07:56:22.716Z,7.13
2023-02-27T07:58:49.355Z,8.17
2023-02-27T08:01:16.068Z,10.30
2023-02-27T08:03:42.752Z,10.03
2023-02-27T08:06:09.452Z,9.23
2023-02-27T08:08:36.129Z,10.40
2023-02-27T08:11:02.835Z,9.67
2023-02-27T08:13:59.119Z,13.67
2023-02-27T08:16:16.145Z,13.03
2023-02-27T08:18:42.969Z,11.20
2023-02-27T08:21:10.168Z,8.67
2023-02-27T08:23:36.906Z,8.07
2023-02-27T08:26:03.678Z,12.67
2023-02-27T08:28:30.382Z,9.17
2023-02-27T08:30:57.034Z,7.23
2023-02-27T08:33:24.576Z,6.20
2023-02-27T08:35:51.349Z,9.23
2023-02-27T08:38:18.026Z,7.30
2023-02-27T08:40:44.729Z,6.50
2023-02-27T08:43:11.375Z,8.93
2023-02-27T08:45:38.154Z,8.03
2023-02-27T08:48:04.954Z,4.77
2023-02-27T08:54:09.100Z,7.90
2023-02-27T08:56:35.742Z,4.93
2023-02-27T08:59:02.834Z,7.80
2023-02-27T09:01:34.495Z,6.63
2023-02-27T09:04:02.620Z,7.93
2023-02-27T09:06:30.433Z,8.57
2023-02-27T09:08:57.771Z,5.00
2023-02-27T09:11:25.215Z,5.63
2023-02-27T09:13:52.864Z,5.60
2023-02-27T09:16:20.233Z,10.77
2023-02-27T09:18:47.260Z,8.50
2023-02-27T09:21:14.139Z,3.73
2023-02-27T09:23:40.833Z,5.40
2023-02-27T09:26:09.649Z,6.00
2023-02-27T09:28:36.753Z,5.87
2023-02-27T09:31:05.761Z,5.53
2023-02-27T09:33:33.263Z,5.53
2023-02-27T09:36:00.537Z,5.90
2023-02-27T09:38:27.455Z,5.50
2023-02-27T09:40:55.872Z,3.67
2023-02-27T09:43:35.636Z,5.20
2023-02-27T09:46:03.076Z,5.50
2023-02-27T09:48:42.734Z,3.23
2023-02-27T09:51:09.368Z,6.13
2023-02-27T09:53:41.267Z,5.17
2023-02-27T09:56:21.709Z,3.13
2023-02-27T09:58:56.399Z,3.03
2023-02-27T10:01:25.663Z,3.53
2023-02-27T10:03:58.647Z,5.07
2023-02-27T10:06:27.137Z,3.20
2023-02-27T10:09:09.308Z,3.93
2023-02-27T10:11:43.617Z,3.13
2023-02-27T10:14:22.140Z,2.83
2023-02-27T10:16:50.556Z,3.27
2023-02-27T10:19:28.637Z,2.73
2023-02-27T10:21:56.909Z,2.17
2023-02-27T10:24:31.984Z,4.87
2023-02-27T10:27:01.408Z,3.87
2023-02-27T10:29:29.374Z,7.43
2023-02-27T10:32:01.044Z,2.93
2023-02-27T10:34:29.143Z,3.20
2023-02-27T10:36:55.889Z,4.43
2023-02-27T10:39:23.214Z,5.77
2023-02-27T10:41:50.293Z,3.20
2023-02-27T10:44:20.336Z,3.30
2023-02-27T10:46:49.545Z,3.97
2023-02-27T10:49:22.064Z,2.83
2023-02-27T10:52:09.085Z,2.50
2023-02-27T10:54:36.096Z,2.77
2023-02-27T10:57:04.964Z,3.47
2023-02-27T10:59:33.636Z,4.07
2023-02-27T11:02:01.760Z,3.03
2023-02-27T11:04:34.799Z,4.47
2023-02-27T11:07:03.305Z,4.27
2023-02-27T11:09:33.132Z,4.97
2023-02-27T11:12:11.806Z,4.30
2023-02-27T11:14:58.704Z,2.13
2023-02-27T11:17:28.618Z,4.37
2023-02-27T11:19:55.927Z,2.60
2023-02-27T11:22:24.597Z,4.17
2023-02-27T11:24:51.936Z,2.23
2023-02-27T11:27:26.721Z,2.97
2023-02-27T11:30:00.804Z,5.30
2023-02-27T11:32:31.712Z,5.33
2023-02-27T11:34:58.476Z,4.17
2023-02-27T11:37:33.953Z,2.87
2023-02-27T11:40:10.195Z,2.97
2023-02-27T11:42:37.724Z,3.50
2023-02-27T11:46:05.860Z,5.60
2023-02-27T11:48:17.876Z,3.17
2023-02-27T11:50:53.740Z,4.43
2023-02-27T11:53:39.271Z,3.87
2023-02-27T11:56:09.120Z,2.63
2023-02-27T11:58:42.577Z,3.87
2023-02-27T12:01:14.937Z,4.70
2023-02-27T12:03:44.659Z,6.10
2023-02-27T12:06:16.218Z,4.37
2023-02-27T12:08:49.852Z,3.03
2023-02-27T12:11:22.147Z,2.40
2023-02-27T12:13:53.842Z,3.13
2023-02-27T12:16:47.247Z,3.27
2023-02-27T12:19:19.979Z,4.87
2023-02-27T12:21:49.865Z,4.87
2023-02-27T12:24:23.664Z,3.43
2023-02-27T12:26:55.796Z,5.20
2023-02-27T12:29:28.400Z,4.03
2023-02-27T12:32:01.363Z,2.40
2023-02-27T12:34:34.494Z,9.50
2023-02-27T12:37:05.718Z,1.83
2023-02-27T12:39:32.796Z,2.37
2023-02-27T12:42:19.788Z,3.27
2023-02-27T12:45:01.715Z,1.80
2023-02-27T12:47:45.491Z,1.20
2023-02-27T12:50:12.357Z,1.20
2023-02-27T12:52:57.944Z,3.27
2023-02-27T12:55:28.792Z,2.00
2023-02-27T12:58:15.163Z,1.53
2023-02-27T13:00:59.985Z,2.37
2023-02-27T13:03:35.969Z,1.10
2023-02-27T13:06:13.440Z,2.00
2023-02-27T13:08:50.701Z,2.60
2023-02-27T13:11:21.827Z,3.70
2023-02-27T13:13:55.582Z,1.70
2023-02-27T13:16:42.578Z,1.50
2023-02-27T13:19:16.266Z,3.63
2023-02-27T13:21:47.407Z,1.37
2023-02-27T13:24:19.576Z,19.13
2023-02-27T13:26:48.594Z,1.40
2023-02-27T13:29:16.164Z,3.63
2023-02-27T13:31:53.467Z,1.30
2023-02-27T13:34:26.451Z,1.23
2023-02-27T13:36:57.128Z,1.80
2023-02-27T13:39:42.320Z,6.07
2023-02-27T13:42:27.190Z,1.93
2023-02-27T13:44:54.904Z,2.47
2023-02-27T13:47:30.840Z,2.07
2023-02-27T13:49:58.865Z,1.27
2023-02-27T13:52:36.205Z,3.83
2023-02-27T13:55:11.904Z,3.13
2023-02-27T13:57:39.028Z,2.83
2023-02-27T14:00:26.264Z,3.03
2023-02-27T14:02:59.837Z,2.63
2023-02-27T14:05:35.256Z,3.70
2023-02-27T14:08:20.667Z,3.37
2023-02-27T14:10:53.726Z,1.70
2023-02-27T14:13:39.471Z,2.63
2023-02-27T14:16:08.785Z,1.33
2023-02-27T14:18:50.142Z,1.20
2023-02-27T14:21:37.046Z,3.00
2023-02-27T14:24:04.097Z,2.10
2023-02-27T14:26:30.897Z,1.87
2023-02-27T14:28:59.334Z,2.30
2023-02-27T14:31:29.304Z,3.93
2023-02-27T14:33:59.201Z,1.33
2023-02-27T14:36:27.434Z,1.27
2023-02-27T14:38:58.041Z,1.57
2023-02-27T14:41:27.802Z,4.60
2023-02-27T14:43:57.506Z,3.10
2023-02-27T14:46:24.149Z,4.70
2023-02-27T14:48:58.733Z,4.30
2023-02-27T14:51:26.685Z,2.03
2023-02-27T14:54:00.870Z,5.13
2023-02-27T14:56:27.858Z,1.73
2023-02-27T14:59:04.236Z,3.30
2023-02-27T15:01:35.417Z,6.40
2023-02-27T15:04:02.439Z,2.23
2023-02-27T15:06:37.441Z,3.00
2023-02-27T15:09:04.317Z,1.83
2023-02-27T15:11:31.555Z,4.77
2023-02-27T15:14:00.299Z,2.90
2023-02-27T15:16:34.044Z,3.30
2023-02-27T15:19:04.515Z,1.53
2023-02-27T15:21:34.042Z,2.17
2023-02-27T15:24:02.326Z,2.33
2023-02-27T15:26:32.736Z,1.57
2023-02-27T15:29:00.530Z,1.20
2023-02-27T15:31:30.171Z,2.10
2023-02-27T15:33:57.470Z,1.60
2023-02-27T15:36:26.642Z,2.80
2023-02-27T15:39:03.616Z,1.93
2023-02-27T15:41:30.444Z,1.60
2023-02-27T15:43:57.307Z,2.60
2023-02-27T15:46:24.274Z,3.20
2023-02-27T15:48:51.165Z,3.33
2023-02-27T15:51:17.997Z,2.73
2023-02-27T15:53:48.817Z,1.30
2023-02-27T15:56:15.732Z,1.60
2023-02-27T15:58:49.133Z,2.67
2023-02-27T16:01:21.000Z,1.70
2023-02-27T16:03:52.995Z,3.97
2023-02-27T16:06:19.601Z,4.50
2023-02-27T16:08:57.906Z,1.20
2023-02-27T16:11:25.889Z,3.17
2023-02-27T16:13:53.183Z,2.17
2023-02-27T16:16:19.908Z,1.67
2023-02-27T16:18:51.171Z,3.10
2023-02-27T16:21:19.005Z,4.37
2023-02-27T16:23:46.168Z,2.57
2023-02-27T16:26:19.042Z,4.57
2023-02-27T16:28:51.484Z,4.03
2023-02-27T16:31:24.998Z,3.27
2023-02-27T16:33:52.172Z,1.90
2023-02-27T16:36:20.188Z,3.30
2023-02-27T16:38:47.200Z,2.87
2023-02-27T16:41:16.183Z,3.97
2023-02-27T16:43:44.227Z,3.27
2023-02-27T16:46:15.759Z,2.20
2023-02-27T16:48:43.074Z,3.00
2023-02-27T16:51:15.009Z,6.13
2023-02-27T16:53:41.651Z,31.07
2023-02-27T16:56:11.147Z,6.80
2023-02-27T16:58:38.137Z,5.07
2023-02-27T17:01:05.285Z,5.47
2023-02-27T17:03:33.286Z,4.43
2023-02-27T17:05:59.949Z,5.60
2023-02-27T17:08:26.655Z,4.67
2023-02-27T17:10:53.638Z,4.60
2023-02-27T17:13:20.988Z,5.03
2023-02-27T17:15:47.678Z,4.80
2023-02-27T17:18:15.004Z,5.13
2023-02-27T17:20:41.668Z,3.50
2023-02-27T17:23:14.110Z,4.97
2023-02-27T17:25:41.811Z,3.37
2023-02-27T17:28:08.463Z,3.90
2023-02-27T17:30:36.218Z,3.43
2023-02-27T17:33:04.346Z,4.47
2023-02-27T17:35:32.644Z,6.57
2023-02-27T17:37:59.620Z,4.53
2023-02-27T17:40:27.473Z,3.53
2023-02-27T17:42:54.054Z,5.90
2023-02-27T17:45:21.300Z,4.73
2023-02-27T17:47:48.883Z,4.03
2023-02-27T17:50:16.012Z,5.87
2023-02-27T17:52:42.544Z,6.53
2023-02-27T17:55:09.701Z,7.87
2023-02-27T17:57:37.075Z,8.00
2023-02-27T18:00:04.844Z,6.30
2023-02-27T18:02:32.237Z,7.63
2023-02-27T18:04:59.488Z,5.50
2023-02-27T18:07:26.101Z,8.43
2023-02-27T18:09:52.687Z,4.80
2023-02-27T18:12:19.436Z,5.90
2023-02-27T18:14:46.205Z,3.93
2023-02-27T18:17:13.165Z,6.50
2023-02-27T18:19:41.655Z,4.43
2023-02-27T18:22:08.955Z,6.07
2023-02-27T18:24:36.137Z,8.37
2023-02-27T18:27:02.856Z,6.17
2023-02-27T18:29:29.762Z,7.43
2023-02-27T18:31:56.707Z,8.33
2023-02-27T18:34:23.676Z,8.80
2023-02-27T18:36:51.985Z,4.93
2023-02-27T18:39:18.873Z,9.70
2023-02-27T18:41:45.743Z,5.57
2023-02-27T18:44:12.374Z,4.93
2023-02-27T18:46:39.281Z,6.00
2023-02-27T18:49:05.902Z,3.93
2023-02-27T18:51:32.498Z,6.33
2023-02-27T18:54:00.851Z,7.63
2023-02-27T18:56:30.628Z,6.93
2023-02-27T18:59:02.145Z,8.53
2023-02-27T19:01:30.313Z,8.27
2023-02-27T19:04:03.634Z,11.87
2023-02-27T19:06:31.592Z,12.50
2023-02-27T19:08:58.504Z,8.40
2023-02-27T19:11:26.686Z,5.30
2023-02-27T19:13:53.309Z,5.50
2023-02-27T19:16:20.178Z,6.80
2023-02-27T19:18:47.200Z,8.13
2023-02-27T19:21:14.227Z,4.80
2023-02-27T19:23:40.778Z,4.87
2023-02-27T19:26:07.482Z,7.10
2023-02-27T19:28:34.100Z,6.23
2023-02-27T19:31:05.932Z,5.90
2023-02-27T19:33:32.602Z,6.73
2023-02-27T19:35:59.902Z,4.77
2023-02-27T19:38:26.582Z,7.33
2023-02-27T19:40:53.605Z,4.57
2023-02-27T19:43:20.340Z,6.37
2023-02-27T19:45:47.292Z,4.57
2023-02-27T19:48:18.981Z,4.67
2023-02-27T19:50:45.937Z,6.13
2023-02-27T19:53:13.476Z,5.20
2023-02-27T19:55:40.273Z,6.27
2023-02-27T19:58:06.882Z,5.87
2023-02-27T20:00:33.559Z,4.83
2023-02-27T20:03:00.439Z,3.83
2023-02-27T20:05:27.131Z,4.73
2023-02-27T20:07:53.859Z,5.17
2023-02-27T20:10:20.607Z,7.93
2023-02-27T20:12:47.396Z,4.63
2023-02-27T20:15:14.360Z,4.63
2023-02-27T20:17:42.647Z,7.03
2023-02-27T20:20:09.617Z,5.03
2023-02-27T20:22:38.231Z,5.50
2023-02-27T20:25:09.434Z,6.37
2023-02-27T20:27:36.922Z,5.63
2023-02-27T20:30:04.053Z,5.63
2023-02-27T20:32:31.189Z,9.37
2023-02-27T20:34:57.888Z,6.87
2023-02-27T20:37:24.673Z,5.63
2023-02-27T20:39:51.414Z,6.30
2023-02-27T20:42:18.095Z,6.37
2023-02-27T20:44:45.258Z,8.23
2023-02-27T20:47:11.883Z,6.17
2023-02-27T20:49:38.549Z,9.20
2023-02-27T20:52:05.327Z,6.67
2023-02-27T20:54:32.600Z,8.93
2023-02-27T20:56:59.734Z,7.80
2023-02-27T20:59:26.788Z,6.87
2023-02-27T21:01:55.073Z,10.40
2023-02-27T21:04:23.363Z,5.10
2023-02-27T21:06:50.258Z,8.47
2023-02-27T21:09:17.019Z,8.87
2023-02-27T21:11:43.600Z,7.47
2023-02-27T21:14:11.272Z,9.50
2023-02-27T21:16:41.017Z,13.37
2023-02-27T21:19:07.847Z,12.40
2023-02-27T21:21:35.173Z,11.47
2023-02-27T21:24:02.074Z,12.83
2023-02-27T21:26:30.474Z,10.07
2023-02-27T21:28:59.044Z,10.63
2023-02-27T21:31:26.937Z,10.40
2023-02-27T21:33:54.662Z,13.07
2023-02-27T21:36:25.551Z,14.03
2023-02-27T21:38:54.934Z,15.07
2023-02-27T21:41:21.972Z,13.43
2023-02-27T21:43:48.950Z,12.13
2023-02-27T21:46:15.684Z,8.60
2023-02-27T21:48:43.432Z,11.37
2023-02-27T21:51:10.389Z,11.37
2023-02-27T21:53:37.054Z,12.43
2023-02-27T21:56:04.876Z,10.97
2023-02-27T21:58:31.549Z,12.00
2023-02-27T22:00:58.185Z,9.27
2023-02-27T22:03:25.928Z,9.10
2023-02-27T22:05:52.627Z,9.87
2023-02-27T22:08:19.710Z,9.63
2023-02-27T22:10:46.418Z,9.60
2023-02-27T22:13:13.493Z,8.27
2023-02-27T22:15:40.650Z,11.30
2023-02-27T22:18:07.585Z,11.87
2023-02-27T22:20:34.441Z,9.43
2023-02-27T22:23:04.687Z,9.80
2023-02-27T22:25:32.587Z,6.97
2023-02-27T22:27:59.896Z,7.80
2023-02-27T22:30:27.903Z,5.73
2023-02-27T22:32:55.004Z,8.07
2023-02-27T22:35:22.348Z,8.27
2023-02-27T22:37:49.044Z,7.43
2023-02-27T22:40:17.748Z,8.27
2023-02-27T22:42:45.077Z,11.83
2023-02-27T22:45:11.924Z,6.77
2023-02-27T22:47:38.648Z,7.10
2023-02-27T22:50:05.529Z,9.13
2023-02-27T22:52:34.698Z,7.27
2023-02-27T22:55:01.241Z,8.70
2023-02-27T22:57:28.453Z,8.33
2023-02-27T22:59:54.994Z,7.57
2023-02-27T23:02:21.615Z,7.10
2023-02-27T23:04:48.158Z,4.37
2023-02-27T23:07:14.751Z,4.77
2023-02-27T23:09:41.422Z,5.00
2023-02-27T23:12:08.253Z,7.33
2023-02-27T23:14:34.914Z,7.47
2023-02-27T23:17:01.471Z,6.50
2023-02-27T23:19:28.043Z,5.07
2023-02-27T23:21:54.964Z,6.27
2023-02-27T23:24:21.535Z,4.13
2023-02-27T23:26:48.984Z,4.90
2023-02-27T23:29:16.029Z,5.47
2023-02-27T23:31:42.972Z,4.90
2023-02-27T23:34:09.932Z,5.57
2023-02-27T23:36:37.366Z,5.87
2023-02-27T23:39:05.019Z,6.30
2023-02-27T23:41:32.599Z,5.97
2023-02-27T23:44:18.036Z,5.07
2023-02-27T23:46:44.732Z,5.10
2023-02-27T23:49:11.615Z,4.57
2023-02-27T23:51:38.272Z,8.07
2023-02-27T23:54:04.920Z,7.17
2023-02-27T23:56:31.659Z,7.17
2023-02-27T23:59:02.856Z,5.37
